createdAt,value
2018-05-31T00:03:58.418Z,86.40
2018-05-31T00:09:00.468Z,85.80
2018-05-31T00:14:02.546Z,86.20
2018-05-31T00:19:03.855Z,85.40
2018-05-31T00:24:05.895Z,83.90
2018-05-31T00:29:07.203Z,83.90
2018-05-31T00:34:08.509Z,87.30
2018-05-31T00:39:09.845Z,89.10
2018-05-31T00:44:11.144Z,90.70
2018-05-31T00:49:12.452Z,92.20
2018-05-31T00:54:13.756Z,93.20
2018-05-31T00:59:15.079Z,93.90
2018-05-31T01:04:17.131Z,94.80
2018-05-31T01:09:18.436Z,94.80
2018-05-31T01:14:19.767Z,95.60
2018-05-31T01:19:22.555Z,97.30
2018-05-31T01:24:23.859Z,97.30
2018-05-31T01:29:25.167Z,97.60
2018-05-31T01:34:26.463Z,98.00
2018-05-31T01:39:27.780Z,97.80
2018-05-31T01:44:29.094Z,97.50
2018-05-31T01:49:31.160Z,97.10
2018-05-31T01:54:32.483Z,97.10
2018-05-31T01:59:33.770Z,97.30
2018-05-31T02:04:35.075Z,97.80
2018-05-31T02:09:36.390Z,98.10
2018-05-31T02:14:37.726Z,98.50
2018-05-31T02:19:39.036Z,98.10
2018-05-31T02:24:40.332Z,98.10
2018-05-31T02:29:41.627Z,98.20
2018-05-31T02:34:42.927Z,97.60
2018-05-31T02:39:44.247Z,97.70
2018-05-31T02:44:45.581Z,97.90
2018-05-31T02:49:47.644Z,97.80
2018-05-31T02:54:48.942Z,97.80
2018-05-31T02:59:50.987Z,97.10
2018-05-31T03:04:52.294Z,97.10
2018-05-31T03:09:54.343Z,97.30
2018-05-31T03:14:56.403Z,97.00
2018-05-31T03:19:57.747Z,97.00
2018-05-31T03:24:59.050Z,96.60
2018-05-31T03:30:00.331Z,96.30
2018-05-31T03:35:01.636Z,96.20
2018-05-31T03:40:02.975Z,96.40
2018-05-31T03:45:05.051Z,96.70
2018-05-31T03:50:07.111Z,96.50
2018-05-31T03:55:08.424Z,96.40
2018-05-31T04:00:09.729Z,96.10
2018-05-31T04:05:11.031Z,95.70
2018-05-31T04:10:13.077Z,95.50
2018-05-31T04:15:14.385Z,95.50
2018-05-31T04:20:15.705Z,95.70
2018-05-31T04:25:18.487Z,95.10
2018-05-31T04:30:19.785Z,95.10
2018-05-31T04:35:21.093Z,94.90
2018-05-31T04:40:22.399Z,95.30
2018-05-31T04:45:24.455Z,94.60
2018-05-31T04:50:25.790Z,94.70
2018-05-31T04:55:27.830Z,94.20
2018-05-31T05:00:29.154Z,94.20
2018-05-31T05:05:30.461Z,94.20
2018-05-31T05:10:31.751Z,93.60
2018-05-31T05:15:33.791Z,93.00
2018-05-31T05:20:35.099Z,93.00
2018-05-31T05:25:37.151Z,92.60
2018-05-31T05:30:38.459Z,92.60
2018-05-31T05:35:40.489Z,91.40
2018-05-31T05:40:41.822Z,91.40
2018-05-31T05:45:43.155Z,91.00
2018-05-31T05:50:44.497Z,91.30
2018-05-31T05:55:45.808Z,91.60
2018-05-31T06:00:47.102Z,91.50
2018-05-31T06:05:48.423Z,90.80
2018-05-31T06:10:49.757Z,90.20
2018-05-31T06:15:51.791Z,86.90
2018-05-31T06:20:53.104Z,87.00
2018-05-31T06:25:55.247Z,84.60
2018-05-31T06:30:56.550Z,84.40
2018-05-31T06:35:57.862Z,84.80
2018-05-31T06:40:59.170Z,78.90
2018-05-31T06:46:01.235Z,80.10
2018-05-31T06:51:02.597Z,80.10
2018-05-31T06:56:03.895Z,80.50
2018-05-31T07:01:05.198Z,78.50
2018-05-31T07:06:06.535Z,80.30
2018-05-31T07:11:07.841Z,79.90
2018-05-31T07:16:09.132Z,76.20
2018-05-31T07:21:10.426Z,74.70
2018-05-31T07:26:11.721Z,74.20
2018-05-31T07:31:13.021Z,74.20
2018-05-31T07:36:14.351Z,72.90
2018-05-31T07:41:15.655Z,71.00
2018-05-31T07:46:16.952Z,71.40
2018-05-31T07:51:19.038Z,70.60
2018-05-31T07:56:20.320Z,70.40
2018-05-31T08:01:22.372Z,67.50
2018-05-31T08:06:23.673Z,67.60
2018-05-31T08:11:24.979Z,67.10
2018-05-31T08:16:26.286Z,65.80
2018-05-31T08:21:28.304Z,64.00
2018-05-31T08:26:29.596Z,64.00
2018-05-31T08:31:30.939Z,62.30
2018-05-31T08:36:32.951Z,59.80
2018-05-31T08:41:34.256Z,59.80
2018-05-31T08:46:35.645Z,59.20
2018-05-31T08:51:36.946Z,57.60
2018-05-31T08:56:38.263Z,60.70
2018-05-31T09:01:39.579Z,60.10
2018-05-31T09:06:40.927Z,56.50
2018-05-31T09:11:42.288Z,55.80
2018-05-31T09:16:43.630Z,56.50
2018-05-31T09:21:44.925Z,56.20
2018-05-31T09:26:46.227Z,55.10
2018-05-31T09:31:48.257Z,53.80
2018-05-31T09:36:49.566Z,53.80
2018-05-31T09:41:51.611Z,51.50
2018-05-31T09:46:52.951Z,51.50
2018-05-31T09:51:54.239Z,51.30
2018-05-31T09:56:55.556Z,49.30
2018-05-31T10:01:56.859Z,50.30
2018-05-31T10:06:58.180Z,47.00
2018-05-31T10:12:00.214Z,46.40
2018-05-31T10:17:01.524Z,46.30
2018-05-31T10:22:03.567Z,43.60
2018-05-31T10:32:32.856Z,41.10
2018-05-31T10:37:34.921Z,41.40
2018-05-31T10:42:36.996Z,40.20
2018-05-31T10:47:38.310Z,40.20
2018-05-31T10:52:39.634Z,41.00
2018-05-31T10:57:40.979Z,38.80
2018-05-31T11:02:42.291Z,39.80
2018-05-31T11:07:43.591Z,38.30
2018-05-31T11:12:44.909Z,36.70
2018-05-31T11:17:46.969Z,40.60
2018-05-31T11:22:49.055Z,42.90
2018-05-31T11:27:51.131Z,44.60
2018-05-31T11:32:53.184Z,43.30
2018-05-31T11:37:54.501Z,43.30
2018-05-31T11:42:55.795Z,39.80
2018-05-31T11:47:57.099Z,34.40
2018-05-31T11:52:58.441Z,34.50
2018-05-31T11:57:59.748Z,34.10
2018-05-31T12:03:01.787Z,29.30
2018-05-31T12:08:04.129Z,29.20
2018-05-31T12:13:05.481Z,27.10
2018-05-31T12:18:06.829Z,27.00
2018-05-31T12:23:08.140Z,25.30
2018-05-31T12:28:09.460Z,24.10
2018-05-31T12:33:10.792Z,24.90
2018-05-31T12:38:12.117Z,27.30
2018-05-31T12:43:13.447Z,28.40
2018-05-31T12:48:14.781Z,32.10
2018-05-31T12:53:16.106Z,34.20
2018-05-31T12:58:18.146Z,38.40
2018-05-31T13:03:19.447Z,38.20
2018-05-31T13:08:20.803Z,37.10
2018-05-31T13:13:23.705Z,33.90
2018-05-31T13:18:25.757Z,28.80
2018-05-31T13:23:27.056Z,28.80
2018-05-31T13:28:29.115Z,26.00
2018-05-31T13:33:30.416Z,25.60
2018-05-31T13:38:32.471Z,21.00
2018-05-31T13:43:33.772Z,20.90
2018-05-31T13:48:35.165Z,26.80
2018-05-31T13:53:36.465Z,22.90
2018-05-31T13:58:37.757Z,24.20
2018-05-31T14:03:39.806Z,23.30
2018-05-31T14:08:41.125Z,23.20
2018-05-31T14:13:42.463Z,21.20
2018-05-31T14:18:43.812Z,19.50
2018-05-31T14:23:45.848Z,18.50
2018-05-31T14:28:47.155Z,18.40
2018-05-31T14:33:49.208Z,25.20
2018-05-31T14:38:51.483Z,25.20
2018-05-31T14:43:52.828Z,26.10
2018-05-31T14:48:54.130Z,28.30
2018-05-31T14:53:55.474Z,32.30
2018-05-31T14:58:56.788Z,36.20
2018-05-31T15:03:58.076Z,38.90
2018-05-31T15:09:00.114Z,44.30
2018-05-31T15:14:01.440Z,44.20
2018-05-31T15:19:02.744Z,45.00
2018-05-31T15:24:04.071Z,47.20
2018-05-31T15:29:05.399Z,47.70
2018-05-31T15:34:06.710Z,47.30
2018-05-31T15:39:08.037Z,47.90
2018-05-31T15:44:09.343Z,48.90
2018-05-31T15:49:10.688Z,48.30
2018-05-31T15:54:11.980Z,49.40
2018-05-31T15:59:13.302Z,49.00
2018-05-31T16:04:15.352Z,51.30
2018-05-31T16:09:16.671Z,51.20
2018-05-31T16:14:18.017Z,52.10
2018-05-31T16:19:19.367Z,52.60
2018-05-31T16:24:21.432Z,54.50
2018-05-31T16:29:22.739Z,54.50
2018-05-31T16:34:24.046Z,54.80
2018-05-31T16:39:25.367Z,54.50
2018-05-31T16:44:26.704Z,54.10
2018-05-31T16:49:28.044Z,53.60
2018-05-31T16:54:29.329Z,52.80
2018-05-31T16:59:31.371Z,51.40
2018-05-31T17:04:32.676Z,51.00
2018-05-31T17:09:34.745Z,43.30
2018-05-31T17:14:36.084Z,43.20
2018-05-31T17:19:37.398Z,42.70
2018-05-31T17:24:39.448Z,44.70
2018-05-31T17:29:40.774Z,44.70
2018-05-31T17:34:42.091Z,49.20
2018-05-31T17:39:44.139Z,56.60
2018-05-31T17:44:45.501Z,56.60
2018-05-31T17:49:46.843Z,58.70
2018-05-31T17:54:48.159Z,60.00
2018-05-31T17:59:49.471Z,61.30
2018-05-31T18:04:50.783Z,63.00
2018-05-31T18:09:53.594Z,64.70
2018-05-31T18:14:55.660Z,64.60
2018-05-31T18:19:56.976Z,64.60
2018-05-31T18:24:58.312Z,65.20
2018-05-31T18:30:00.368Z,70.10
2018-05-31T18:35:01.695Z,70.10
2018-05-31T18:40:03.056Z,70.60
2018-05-31T18:45:05.107Z,69.90
2018-05-31T18:50:07.150Z,70.50
2018-05-31T18:55:08.459Z,70.50
2018-05-31T19:00:10.515Z,76.00
2018-05-31T19:05:11.855Z,75.90
2018-05-31T19:10:13.183Z,79.30
2018-05-31T19:15:21.632Z,80.60
2018-05-31T19:20:15.928Z,82.20
2018-05-31T19:25:19.110Z,82.90
2018-05-31T19:30:26.419Z,83.70
2018-05-31T19:35:33.733Z,83.70
2018-05-31T19:40:35.100Z,84.10
2018-05-31T19:45:36.423Z,85.20
2018-05-31T19:50:37.723Z,85.90
2018-05-31T19:55:39.127Z,86.90
2018-05-31T20:00:46.563Z,87.00
2018-05-31T20:05:47.917Z,86.70
2018-05-31T20:10:49.206Z,86.50
2018-05-31T20:15:51.320Z,86.00
2018-05-31T20:20:52.652Z,85.90
2018-05-31T20:25:53.908Z,86.60
2018-05-31T20:30:55.243Z,86.70
2018-05-31T20:35:57.259Z,86.80
2018-05-31T20:40:58.546Z,86.80
2018-05-31T20:45:59.876Z,86.90
2018-05-31T20:51:01.157Z,86.40
2018-05-31T20:56:02.471Z,87.00
2018-05-31T21:01:04.515Z,87.30
2018-05-31T21:06:05.821Z,87.30
2018-05-31T21:11:07.141Z,87.70
2018-05-31T21:16:08.526Z,88.40
2018-05-31T21:21:09.848Z,88.60
2018-05-31T21:26:11.193Z,88.10
2018-05-31T21:31:12.477Z,90.00
2018-05-31T21:36:13.817Z,87.20
2018-05-31T21:41:15.422Z,86.40
2018-05-31T21:46:16.650Z,88.50
2018-05-31T21:51:19.460Z,92.00
2018-05-31T21:56:20.758Z,92.80
2018-05-31T22:01:22.821Z,93.20
2018-05-31T22:06:24.085Z,93.20
2018-05-31T22:11:25.400Z,92.70
2018-05-31T22:16:26.648Z,92.80
2018-05-31T22:21:27.935Z,91.20
2018-05-31T22:26:29.272Z,89.60
2018-05-31T22:31:31.319Z,90.70
2018-05-31T22:36:32.640Z,90.70
2018-05-31T22:41:33.989Z,91.70
2018-05-31T22:46:35.286Z,92.30
2018-05-31T22:51:37.327Z,95.40
2018-05-31T22:56:38.600Z,95.40
2018-05-31T23:01:39.927Z,95.80
2018-05-31T23:06:41.222Z,96.00
2018-05-31T23:11:43.260Z,97.40
2018-05-31T23:16:44.578Z,97.40
2018-05-31T23:21:45.893Z,98.20
2018-05-31T23:26:47.303Z,98.50
2018-05-31T23:31:48.634Z,99.10
2018-05-31T23:36:49.940Z,98.70
2018-05-31T23:41:51.231Z,99.20
2018-05-31T23:46:52.558Z,99.20
2018-05-31T23:51:54.581Z,98.30
2018-05-31T23:56:55.894Z,98.30
